Terminal Aerodrome Forecast
Issued by NWS

Home | Current Version | Previous Version | Text Only | Print | Product List | Glossary On
Versions: 1 2 3 4 5 6 7 8 9 10 11 12 13
092
FTUS46 KMFR 232327
TAFLMT
TAF
KLMT 232327Z 2400/2424 32010KT P6SM SKC
     FM240400 33005KT P6SM SKC=

USA.gov is the U.S. government's official web portal to all federal, state and local government web resources and services.